Time;durP1;ratioP1;P1;durP2;ratioP2;P2;SDS_P1;SDS_P2;PMS_P1;PMS_P2;Temp;Humidity;BMP_temperature;BMP_pressure;BME280_temperature;BME280_humidity;BME280_pressure;Samples;Min_cycle;Max_cycle;Signal;HPM_P1;HPM_P2
2024/01/06 00:01:30;;;;;;;9.85;6.88;;;0.20;93.60;;;;;;4990213;28;20459;-46
2024/01/06 00:03:56;;;;;;;10.38;7.75;;;0.20;93.50;;;;;;4990147;28;20041;-51
2024/01/06 00:06:27;;;;;;;8.35;5.97;;;0.20;93.60;;;;;;4990616;28;20089;-47
2024/01/06 00:08:58;;;;;;;11.68;6.93;;;0.20;93.50;;;;;;4991137;28;20026;-50
2024/01/06 00:11:25;;;;;;;10.38;7.20;;;0.20;93.50;;;;;;4991185;28;20070;-48
2024/01/06 00:13:51;;;;;;;11.00;6.75;;;0.20;93.60;;;;;;4991008;28;20030;-47
2024/01/06 00:16:19;;;;;;;10.70;6.82;;;0.20;93.40;;;;;;4990496;28;20546;-47
2024/01/06 00:18:46;;;;;;;10.93;6.40;;;0.20;93.30;;;;;;4990954;28;20027;-54
2024/01/06 00:21:14;;;;;;;12.23;6.63;;;0.20;93.40;;;;;;4994783;28;20113;-46
2024/01/06 00:23:43;;;;;;;9.95;6.75;;;0.20;93.40;;;;;;4990861;28;20059;-52
2024/01/06 00:26:13;;;;;;;10.00;6.93;;;0.20;93.30;;;;;;4990512;28;20604;-46
2024/01/06 00:28:40;;;;;;;10.50;7.15;;;0.20;93.30;;;;;;4988806;28;20026;-48
2024/01/06 00:31:07;;;;;;;9.35;6.30;;;0.20;93.30;;;;;;4990090;28;20038;-47
2024/01/06 00:33:34;;;;;;;10.75;6.97;;;0.20;93.20;;;;;;4990094;28;20057;-48
2024/01/06 00:36:02;;;;;;;12.52;6.32;;;0.20;93.40;;;;;;4990566;28;20379;-51
2024/01/06 00:38:31;;;;;;;10.82;7.25;;;0.20;93.40;;;;;;5039168;28;20346;-49
2024/01/06 00:40:58;;;;;;;12.73;8.10;;;0.20;93.20;;;;;;4990291;28;20126;-49
2024/01/06 00:43:25;;;;;;;10.13;7.32;;;0.10;93.20;;;;;;4989742;28;20050;-50
2024/01/06 00:45:52;;;;;;;10.15;6.57;;;0.10;93.30;;;;;;4999966;28;20026;-47
2024/01/06 00:48:18;;;;;;;12.18;8.85;;;0.10;93.30;;;;;;4992863;28;20033;-49
2024/01/06 00:50:46;;;;;;;10.60;7.60;;;0.10;93.30;;;;;;4990628;28;20030;-50
2024/01/06 00:53:14;;;;;;;12.10;8.38;;;0.10;93.20;;;;;;4999234;28;20042;-51
2024/01/06 00:55:40;;;;;;;11.18;7.68;;;0.10;93.20;;;;;;4991121;28;20066;-50
2024/01/06 00:58:11;;;;;;;10.00;6.95;;;0.10;93.20;;;;;;4989791;28;20034;-51
2024/01/06 01:00:38;;;;;;;12.75;7.72;;;0.10;93.20;;;;;;4989680;28;20023;-49
2024/01/06 01:03:04;;;;;;;11.48;7.40;;;0.10;93.20;;;;;;4989188;28;20041;-49
2024/01/06 01:05:30;;;;;;;11.73;8.07;;;0.10;93.10;;;;;;4989732;28;20457;-52
2024/01/06 01:07:57;;;;;;;10.00;7.13;;;0.10;93.10;;;;;;4989232;28;20068;-49
2024/01/06 01:10:24;;;;;;;9.65;7.00;;;0.10;93.00;;;;;;4989483;28;20084;-47
2024/01/06 01:12:54;;;;;;;11.25;7.57;;;0.10;93.10;;;;;;4989452;28;20029;-52
2024/01/06 01:15:21;;;;;;;11.50;7.07;;;0.20;93.20;;;;;;4989508;28;20396;-55
2024/01/06 01:17:47;;;;;;;9.60;6.90;;;0.10;93.00;;;;;;4988512;28;20034;-48
2024/01/06 01:20:13;;;;;;;9.25;6.28;;;0.10;93.00;;;;;;4990695;28;20031;-51
2024/01/06 01:22:40;;;;;;;9.90;6.82;;;0.10;92.80;;;;;;4988462;28;20459;-49
2024/01/06 01:25:08;;;;;;;8.75;6.63;;;0.10;92.80;;;;;;4987996;28;20593;-51
2024/01/06 01:27:36;;;;;;;8.55;6.10;;;0.10;92.70;;;;;;4987987;28;20062;-53
2024/01/06 01:30:03;;;;;;;10.82;7.05;;;0.10;92.60;;;;;;4989086;28;20018;-54
2024/01/06 01:32:32;;;;;;;10.38;6.30;;;0.20;92.80;;;;;;4989174;28;20026;-54
2024/01/06 01:34:59;;;;;;;8.57;5.70;;;0.20;92.60;;;;;;4989305;28;20414;-51
2024/01/06 01:37:24;;;;;;;7.97;5.93;;;0.20;92.70;;;;;;4989118;28;20038;-49
2024/01/06 01:39:51;;;;;;;8.90;6.30;;;0.10;92.70;;;;;;4996169;28;20104;-48
2024/01/06 01:42:18;;;;;;;9.98;5.93;;;0.10;92.70;;;;;;4995662;28;20046;-51
2024/01/06 01:44:45;;;;;;;9.35;5.93;;;0.10;92.50;;;;;;4999129;28;20065;-51
2024/01/06 01:47:18;;;;;;;9.93;5.75;;;0.10;92.60;;;;;;4993402;28;20029;-48
2024/01/06 01:49:48;;;;;;;9.48;6.55;;;0.10;92.50;;;;;;4993122;28;20026;-52
2024/01/06 01:52:18;;;;;;;9.13;6.13;;;0.10;92.50;;;;;;4991978;28;20393;-51
2024/01/06 01:54:46;;;;;;;10.07;6.45;;;0.10;92.50;;;;;;5006306;28;20030;-51
2024/01/06 01:57:15;;;;;;;11.40;6.32;;;0.00;92.30;;;;;;4993055;28;20032;-55
2024/01/06 01:59:41;;;;;;;8.90;5.90;;;0.20;92.30;;;;;;4992830;28;20029;-51
2024/01/06 02:02:08;;;;;;;9.45;5.75;;;0.10;92.20;;;;;;4992986;28;20035;-50
2024/01/06 02:04:35;;;;;;;10.45;6.15;;;0.20;92.30;;;;;;4992836;28;20471;-51
2024/01/06 02:07:02;;;;;;;11.38;6.30;;;0.20;92.30;;;;;;4993203;28;20033;-51
2024/01/06 02:09:31;;;;;;;9.82;6.03;;;0.20;92.20;;;;;;4991660;28;20484;-54
2024/01/06 02:11:58;;;;;;;7.30;5.55;;;0.20;92.00;;;;;;4993021;28;20034;-49
2024/01/06 02:14:25;;;;;;;9.20;5.38;;;0.20;92.00;;;;;;4992647;28;20069;-51
2024/01/06 02:16:54;;;;;;;9.85;5.47;;;0.20;92.00;;;;;;4992327;28;20045;-53
2024/01/06 02:19:21;;;;;;;7.57;5.25;;;0.20;92.20;;;;;;4992207;28;20034;-48
2024/01/06 02:21:54;;;;;;;11.02;6.72;;;0.20;92.20;;;;;;4998570;28;20143;-53
2024/01/06 02:24:21;;;;;;;7.78;5.68;;;0.30;92.10;;;;;;4999717;28;20117;-53
2024/01/06 02:26:48;;;;;;;7.38;5.22;;;0.20;91.90;;;;;;5002765;28;20056;-56
2024/01/06 02:29:17;;;;;;;10.57;6.72;;;0.20;91.90;;;;;;5001578;28;20487;-55
2024/01/06 02:31:44;;;;;;;9.23;6.43;;;0.20;91.90;;;;;;5002141;28;20066;-49
2024/01/06 02:34:14;;;;;;;8.98;6.25;;;0.30;92.00;;;;;;5001251;28;20371;-49
2024/01/06 02:36:41;;;;;;;8.93;6.00;;;0.30;92.00;;;;;;5002831;28;20076;-49
2024/01/06 02:39:07;;;;;;;7.32;5.57;;;0.30;91.80;;;;;;5001654;28;20394;-56
2024/01/06 02:41:36;;;;;;;9.05;5.75;;;0.30;91.70;;;;;;5000499;28;20378;-50
2024/01/06 02:44:06;;;;;;;10.05;6.15;;;0.30;91.70;;;;;;4983822;28;20037;-52
2024/01/06 02:46:32;;;;;;;7.88;5.28;;;0.30;91.80;;;;;;4991808;28;20026;-54
2024/01/06 02:48:58;;;;;;;10.85;6.70;;;0.40;91.80;;;;;;4992409;28;20022;-51
2024/01/06 02:51:25;;;;;;;9.00;6.00;;;0.40;91.80;;;;;;4992108;28;20034;-53
2024/01/06 02:53:51;;;;;;;9.13;5.40;;;0.30;91.80;;;;;;4992748;28;20348;-55
2024/01/06 02:56:18;;;;;;;10.48;5.53;;;0.30;91.80;;;;;;4992374;28;20339;-50
2024/01/06 02:58:46;;;;;;;9.88;6.28;;;0.30;91.60;;;;;;4992309;28;20109;-51
2024/01/06 03:01:12;;;;;;;9.30;6.07;;;0.40;91.70;;;;;;4990946;28;20451;-51
2024/01/06 03:03:39;;;;;;;9.80;7.22;;;0.30;91.50;;;;;;4992186;28;20034;-52
2024/01/06 03:06:06;;;;;;;9.73;5.63;;;0.40;91.50;;;;;;4991904;28;20075;-53
2024/01/06 03:08:34;;;;;;;10.27;6.63;;;0.40;91.50;;;;;;4991613;28;20038;-52
2024/01/06 03:11:05;;;;;;;8.48;6.07;;;0.40;91.70;;;;;;4991707;28;20023;-50
2024/01/06 03:13:35;;;;;;;9.23;6.65;;;0.40;91.70;;;;;;4992200;28;20075;-48
2024/01/06 03:16:07;;;;;;;8.57;5.63;;;0.40;91.50;;;;;;4991959;28;20053;-55
2024/01/06 03:18:34;;;;;;;11.48;7.13;;;0.40;91.50;;;;;;4991663;28;20581;-50
2024/01/06 03:21:00;;;;;;;9.50;6.18;;;0.40;91.50;;;;;;4991005;28;20038;-52
2024/01/06 03:23:26;;;;;;;9.20;6.63;;;0.40;91.60;;;;;;4991843;28;20168;-51
2024/01/06 03:25:52;;;;;;;11.75;6.90;;;0.40;91.40;;;;;;5001828;28;20109;-49
2024/01/06 03:28:18;;;;;;;9.73;6.72;;;0.40;91.50;;;;;;4991788;28;20111;-51
2024/01/06 03:30:45;;;;;;;11.15;7.20;;;0.40;91.50;;;;;;4991488;28;20026;-53
2024/01/06 03:33:14;;;;;;;9.80;6.68;;;0.40;91.40;;;;;;4991379;28;20447;-50
2024/01/06 03:35:41;;;;;;;9.80;6.82;;;0.40;91.50;;;;;;4991454;28;20045;-52
2024/01/06 03:38:08;;;;;;;8.75;6.18;;;0.40;91.60;;;;;;5024029;28;20030;-52
2024/01/06 03:40:33;;;;;;;9.60;6.53;;;0.40;91.70;;;;;;4997029;28;20061;-55
2024/01/06 03:43:03;;;;;;;8.88;6.43;;;0.50;91.70;;;;;;4990502;28;20135;-48
2024/01/06 03:45:28;;;;;;;10.23;6.57;;;0.50;91.80;;;;;;4991193;28;20041;-52
2024/01/06 03:47:56;;;;;;;12.50;7.47;;;0.50;91.60;;;;;;4990825;28;20113;-52
2024/01/06 03:50:22;;;;;;;10.63;6.50;;;0.50;91.60;;;;;;4991289;28;20313;-48
2024/01/06 03:52:49;;;;;;;9.43;6.78;;;0.50;91.50;;;;;;4991449;28;20164;-48
2024/01/06 03:55:18;;;;;;;12.32;7.32;;;0.50;91.50;;;;;;4990421;28;20495;-48
2024/01/06 03:57:45;;;;;;;11.45;6.70;;;0.60;91.60;;;;;;4990813;28;20042;-48
2024/01/06 04:00:13;;;;;;;9.18;6.78;;;0.60;91.50;;;;;;4991185;28;20053;-49
2024/01/06 04:02:39;;;;;;;8.43;6.20;;;0.60;91.60;;;;;;4995507;28;20046;-50
2024/01/06 04:05:08;;;;;;;9.50;6.18;;;0.60;91.60;;;;;;4989752;28;20035;-51
2024/01/06 04:07:35;;;;;;;9.98;6.80;;;0.60;91.70;;;;;;4991131;28;20034;-51
2024/01/06 04:10:02;;;;;;;9.48;6.10;;;0.60;91.60;;;;;;4990552;28;20543;-52
2024/01/06 04:12:28;;;;;;;8.43;6.18;;;0.60;91.60;;;;;;4990381;28;20054;-50
2024/01/06 04:14:54;;;;;;;8.75;6.45;;;0.60;91.40;;;;;;4991606;28;20038;-53
2024/01/06 04:17:20;;;;;;;9.55;6.20;;;0.60;91.40;;;;;;4990025;28;20060;-49
2024/01/06 04:19:46;;;;;;;9.05;6.70;;;0.60;91.50;;;;;;4991092;28;20049;-48
2024/01/06 04:22:15;;;;;;;9.25;6.75;;;0.70;91.40;;;;;;4993431;28;20043;-54
2024/01/06 04:24:42;;;;;;;11.65;6.15;;;0.70;91.30;;;;;;5000333;28;20034;-51
2024/01/06 04:27:11;;;;;;;11.48;6.75;;;0.60;91.20;;;;;;4990255;28;20412;-51
2024/01/06 04:29:39;;;;;;;10.07;7.53;;;0.70;91.30;;;;;;4990575;28;20424;-49
2024/01/06 04:32:07;;;;;;;10.63;8.05;;;0.60;91.20;;;;;;4990509;28;20373;-51
2024/01/06 04:34:34;;;;;;;10.32;6.97;;;0.60;91.30;;;;;;5004666;28;20095;-51
2024/01/06 04:37:00;;;;;;;9.93;7.00;;;0.70;91.20;;;;;;4989802;28;20026;-49
2024/01/06 04:39:30;;;;;;;9.80;6.97;;;0.60;91.20;;;;;;5015434;28;20046;-52
2024/01/06 04:41:55;;;;;;;11.25;7.22;;;0.60;91.20;;;;;;4989476;28;20042;-51
2024/01/06 04:44:22;;;;;;;12.10;7.20;;;0.60;91.30;;;;;;4990031;28;20091;-50
2024/01/06 04:46:47;;;;;;;9.57;6.55;;;0.60;91.10;;;;;;5004464;28;20025;-49
2024/01/06 04:49:17;;;;;;;10.98;6.88;;;0.60;91.10;;;;;;4990363;28;20034;-50
2024/01/06 04:51:44;;;;;;;9.82;7.60;;;0.60;91.20;;;;;;4990094;28;20050;-50
2024/01/06 04:54:11;;;;;;;10.75;7.40;;;0.70;91.30;;;;;;4989762;28;20064;-50
2024/01/06 04:56:40;;;;;;;11.13;6.80;;;0.70;91.40;;;;;;4989910;28;20049;-49
2024/01/06 04:59:09;;;;;;;9.95;6.70;;;0.70;91.30;;;;;;4989406;28;20022;-52
2024/01/06 05:01:35;;;;;;;9.20;7.07;;;0.70;91.40;;;;;;4989722;28;20042;-50
2024/01/06 05:04:02;;;;;;;14.27;7.47;;;0.70;91.40;;;;;;4989316;28;20084;-53
2024/01/06 05:06:31;;;;;;;9.88;7.85;;;0.70;91.60;;;;;;4989242;28;20087;-49
2024/01/06 05:08:57;;;;;;;13.13;8.70;;;0.70;91.70;;;;;;4989567;28;20106;-55
2024/01/06 05:11:24;;;;;;;10.43;8.48;;;0.60;91.70;;;;;;4989259;28;20031;-49
2024/01/06 05:13:50;;;;;;;10.77;8.00;;;0.70;91.90;;;;;;4989331;28;20032;-52
2024/01/06 05:16:16;;;;;;;10.50;7.47;;;0.70;91.90;;;;;;4988133;28;20030;-52
2024/01/06 05:18:47;;;;;;;11.65;8.10;;;0.70;91.90;;;;;;4988934;28;20037;-52
2024/01/06 05:21:12;;;;;;;8.85;7.10;;;0.70;92.00;;;;;;4989930;28;20046;-53
2024/01/06 05:23:39;;;;;;;11.55;7.93;;;0.70;92.00;;;;;;4989827;28;20027;-49
2024/01/06 05:26:09;;;;;;;10.95;8.27;;;0.70;91.90;;;;;;4988405;28;20045;-54
2024/01/06 05:28:36;;;;;;;10.88;8.35;;;0.70;92.00;;;;;;4989373;28;20486;-50
2024/01/06 05:31:05;;;;;;;12.02;8.15;;;0.60;91.90;;;;;;4989357;28;20052;-51
2024/01/06 05:33:32;;;;;;;12.93;7.72;;;0.60;91.90;;;;;;4989027;28;20099;-55
2024/01/06 05:36:00;;;;;;;13.50;8.73;;;0.60;92.00;;;;;;4989717;28;20117;-48
2024/01/06 05:38:27;;;;;;;11.40;8.60;;;0.70;92.10;;;;;;5037747;28;20128;-52
2024/01/06 05:40:53;;;;;;;12.23;8.60;;;0.70;92.00;;;;;;5036264;28;20093;-51
2024/01/06 05:43:20;;;;;;;10.32;7.47;;;0.70;92.00;;;;;;4988805;28;20042;-52
2024/01/06 05:45:45;;;;;;;14.55;8.35;;;0.70;91.90;;;;;;4988611;28;20030;-50
2024/01/06 05:48:12;;;;;;;13.20;7.75;;;0.70;91.80;;;;;;4988751;28;20379;-50
2024/01/06 05:50:41;;;;;;;12.63;9.13;;;0.70;91.90;;;;;;4988726;28;20149;-51
2024/01/06 05:53:08;;;;;;;12.05;8.30;;;0.70;91.90;;;;;;4988570;28;20133;-51
2024/01/06 05:55:35;;;;;;;11.80;8.70;;;0.70;91.90;;;;;;4988658;28;20335;-50
2024/01/06 05:58:01;;;;;;;14.07;8.57;;;0.70;91.90;;;;;;4988555;28;20106;-51
2024/01/06 06:00:28;;;;;;;10.90;8.05;;;0.70;91.90;;;;;;4996915;28;20056;-49
2024/01/06 06:02:55;;;;;;;12.80;8.30;;;0.70;91.90;;;;;;5007125;28;20034;-54
2024/01/06 06:05:22;;;;;;;12.20;8.35;;;0.70;92.00;;;;;;4988490;28;20148;-54
2024/01/06 06:07:51;;;;;;;12.55;9.18;;;0.70;92.00;;;;;;4988359;28;20336;-50
2024/01/06 06:10:22;;;;;;;;;;;0.60;92.10;;;;;;4988578;28;20412;-54
2024/01/06 06:12:49;;;;;;;13.18;8.93;;;0.70;92.20;;;;;;4987909;28;20331;-52
2024/01/06 06:15:16;;;;;;;11.07;8.88;;;0.70;92.20;;;;;;4989035;28;20098;-52
2024/01/06 06:17:46;;;;;;;14.02;8.77;;;0.70;92.00;;;;;;4988503;28;20117;-49
2024/01/06 06:20:13;;;;;;;12.77;9.20;;;0.70;91.80;;;;;;4999888;28;20039;-49
2024/01/06 06:22:39;;;;;;;12.38;9.63;;;0.70;91.80;;;;;;4993998;28;20483;-52
2024/01/06 06:25:08;;;;;;;12.70;9.05;;;0.70;91.70;;;;;;4991927;28;20072;-50
2024/01/06 06:27:35;;;;;;;10.05;7.82;;;0.70;91.60;;;;;;4994115;28;20014;-49
2024/01/06 06:30:02;;;;;;;12.27;7.63;;;0.80;91.50;;;;;;4994354;28;20450;-53
2024/01/06 06:32:31;;;;;;;10.80;8.07;;;0.70;91.20;;;;;;4993431;28;20019;-51
2024/01/06 06:34:57;;;;;;;13.00;9.05;;;0.70;91.20;;;;;;4994210;28;20377;-52
2024/01/06 06:37:24;;;;;;;15.63;9.57;;;0.70;91.40;;;;;;4994417;28;20208;-53
2024/01/06 06:39:56;;;;;;;11.75;9.40;;;0.70;91.40;;;;;;5004871;28;20457;-50
2024/01/06 06:42:23;;;;;;;15.48;9.40;;;0.80;91.60;;;;;;4993983;28;20049;-49
2024/01/06 06:44:50;;;;;;;13.93;8.88;;;0.80;91.60;;;;;;4993915;28;20340;-53
2024/01/06 06:47:15;;;;;;;15.02;9.40;;;0.70;91.50;;;;;;4994227;28;20034;-49
2024/01/06 06:49:42;;;;;;;12.52;9.07;;;0.70;91.60;;;;;;4994023;28;20022;-48
2024/01/06 06:52:12;;;;;;;12.45;7.90;;;0.70;91.60;;;;;;4993532;28;20367;-52
2024/01/06 06:54:39;;;;;;;13.02;8.50;;;0.70;91.50;;;;;;4993519;28;20422;-51
2024/01/06 06:57:06;;;;;;;13.05;9.15;;;0.70;91.50;;;;;;4993227;28;20041;-51
2024/01/06 06:59:36;;;;;;;12.75;8.90;;;0.70;91.50;;;;;;4992803;28;20073;-53
2024/01/06 07:02:03;;;;;;;14.27;9.25;;;0.70;91.30;;;;;;4990706;28;20033;-52
2024/01/06 07:04:29;;;;;;;11.60;8.93;;;0.70;91.40;;;;;;4991181;28;20530;-50
2024/01/06 07:07:03;;;;;;;12.27;8.95;;;0.70;91.50;;;;;;4974364;28;20034;-51
2024/01/06 07:09:30;;;;;;;12.50;8.48;;;0.70;91.60;;;;;;4991687;28;20026;-53
2024/01/06 07:11:56;;;;;;;13.43;9.27;;;0.70;91.70;;;;;;4991373;28;20183;-50
2024/01/06 07:14:22;;;;;;;14.25;10.00;;;0.70;91.70;;;;;;4995813;28;20026;-56
2024/01/06 07:16:48;;;;;;;15.95;8.80;;;0.60;91.70;;;;;;5001025;28;20018;-51
2024/01/06 07:19:14;;;;;;;15.38;8.70;;;0.70;91.80;;;;;;4997173;28;20028;-52
2024/01/06 07:21:41;;;;;;;14.82;9.52;;;0.60;91.90;;;;;;4997218;28;20023;-48
2024/01/06 07:24:08;;;;;;;13.65;9.88;;;0.60;92.00;;;;;;4999717;28;20033;-52
2024/01/06 07:26:36;;;;;;;14.15;9.55;;;0.60;92.10;;;;;;4997117;28;20065;-53
2024/01/06 07:29:03;;;;;;;13.77;9.95;;;0.60;92.00;;;;;;4994870;28;20018;-53
2024/01/06 07:31:29;;;;;;;12.88;8.88;;;0.60;92.10;;;;;;4997211;28;20030;-50
2024/01/06 07:33:57;;;;;;;14.20;10.20;;;0.60;92.10;;;;;;4997257;28;20037;-50
2024/01/06 07:36:23;;;;;;;15.48;10.05;;;0.60;92.00;;;;;;4993842;28;20031;-53
2024/01/06 07:38:51;;;;;;;13.52;9.23;;;0.60;92.00;;;;;;5047080;28;20031;-53
2024/01/06 07:41:18;;;;;;;13.38;10.10;;;0.60;91.80;;;;;;4990618;28;20037;-55
2024/01/06 07:43:45;;;;;;;15.85;10.43;;;0.50;91.70;;;;;;5001376;28;20046;-54
2024/01/06 07:46:14;;;;;;;15.70;9.93;;;0.50;91.60;;;;;;4990771;28;20034;-52
2024/01/06 07:48:44;;;;;;;16.15;9.75;;;0.60;91.50;;;;;;4990926;28;20060;-52
2024/01/06 07:51:11;;;;;;;17.02;12.15;;;0.50;91.40;;;;;;4990406;28;20463;-49
2024/01/06 07:53:38;;;;;;;13.73;9.73;;;0.60;91.60;;;;;;4991131;28;20048;-56
2024/01/06 07:56:09;;;;;;;13.43;8.93;;;0.60;91.40;;;;;;4990523;28;20031;-54
2024/01/06 07:58:34;;;;;;;15.07;9.52;;;0.70;91.30;;;;;;4990104;28;20042;-51
2024/01/06 08:01:05;;;;;;;13.93;10.43;;;0.70;91.30;;;;;;4998309;28;20075;-49
2024/01/06 08:03:32;;;;;;;13.40;9.48;;;0.70;91.40;;;;;;4998979;28;20031;-54
2024/01/06 08:06:01;;;;;;;14.60;10.25;;;0.70;91.30;;;;;;4996842;28;20105;-50
2024/01/06 08:08:28;;;;;;;14.98;9.80;;;0.60;91.00;;;;;;5008503;28;20025;-52
2024/01/06 08:10:58;;;;;;;13.05;9.82;;;0.70;91.10;;;;;;5000804;28;20041;-50
2024/01/06 08:13:27;;;;;;;13.20;9.43;;;0.70;90.80;;;;;;5003796;28;20030;-54
2024/01/06 08:15:52;;;;;;;14.45;9.38;;;0.70;90.80;;;;;;5000765;28;20103;-50
2024/01/06 08:18:21;;;;;;;13.07;9.85;;;0.70;90.80;;;;;;5002529;28;20464;-53
2024/01/06 08:20:47;;;;;;;14.10;9.38;;;0.70;90.90;;;;;;5000705;28;20103;-53
2024/01/06 08:23:16;;;;;;;12.57;9.48;;;0.70;90.60;;;;;;5003706;28;20439;-54
2024/01/06 08:25:42;;;;;;;12.65;8.55;;;0.70;90.50;;;;;;5004874;28;20113;-51
2024/01/06 08:28:08;;;;;;;13.68;9.63;;;0.70;90.20;;;;;;5005249;28;20036;-57
2024/01/06 08:30:35;;;;;;;12.55;9.85;;;0.70;90.00;;;;;;4997203;28;20035;-54
2024/01/06 08:33:03;;;;;;;12.52;8.60;;;0.70;90.10;;;;;;4994966;28;20061;-53
2024/01/06 08:35:30;;;;;;;13.70;8.85;;;0.70;90.00;;;;;;4995205;28;20046;-49
2024/01/06 08:37:57;;;;;;;13.98;9.18;;;0.70;90.00;;;;;;5001628;28;20026;-54
2024/01/06 08:40:24;;;;;;;17.17;10.20;;;0.70;90.30;;;;;;4994950;28;20117;-54
2024/01/06 08:42:51;;;;;;;12.27;8.93;;;0.70;90.20;;;;;;4998988;28;20554;-54
2024/01/06 08:45:16;;;;;;;10.45;7.55;;;0.70;90.30;;;;;;5003255;28;20164;-55
2024/01/06 08:47:43;;;;;;;12.45;8.35;;;0.70;90.00;;;;;;5002385;28;20087;-53
2024/01/06 08:50:16;;;;;;;11.73;8.35;;;0.70;89.80;;;;;;5003535;28;20393;-52
2024/01/06 08:52:43;;;;;;;13.80;9.48;;;0.70;89.60;;;;;;4996488;28;20031;-51
2024/01/06 08:55:10;;;;;;;13.27;9.43;;;0.70;89.60;;;;;;4997207;28;20110;-53
2024/01/06 08:57:36;;;;;;;11.82;8.57;;;0.70;89.80;;;;;;5002470;28;20026;-54
2024/01/06 09:00:05;;;;;;;11.10;7.43;;;0.70;89.70;;;;;;4996842;28;20026;-53
2024/01/06 09:02:32;;;;;;;11.15;7.97;;;0.70;89.70;;;;;;5003014;28;20086;-53
2024/01/06 09:04:59;;;;;;;15.98;12.45;;;0.70;89.80;;;;;;5001483;28;20405;-55
2024/01/06 09:07:26;;;;;;;13.70;11.18;;;0.70;89.80;;;;;;4994998;28;20061;-55
2024/01/06 09:09:52;;;;;;;16.30;10.65;;;0.70;89.90;;;;;;5003001;28;20587;-55
2024/01/06 09:12:18;;;;;;;13.45;10.25;;;0.70;89.90;;;;;;5006293;28;20462;-53
2024/01/06 09:14:45;;;;;;;20.95;15.52;;;0.60;89.80;;;;;;5000462;28;20033;-51
2024/01/06 09:17:14;;;;;;;16.48;10.48;;;0.60;89.90;;;;;;5002274;28;20124;-54
2024/01/06 09:19:40;;;;;;;11.43;8.73;;;0.60;89.80;;;;;;4993531;28;20028;-53
2024/01/06 09:22:07;;;;;;;13.80;9.45;;;0.70;89.90;;;;;;4991259;28;20303;-56
2024/01/06 09:24:34;;;;;;;12.90;9.75;;;0.60;89.80;;;;;;5004235;28;20105;-53
2024/01/06 09:27:01;;;;;;;10.85;7.65;;;0.70;89.80;;;;;;5023677;28;20408;-51
2024/01/06 09:29:26;;;;;;;11.68;7.95;;;0.70;90.00;;;;;;5001469;28;20030;-56
2024/01/06 09:31:53;;;;;;;14.20;8.88;;;0.60;89.90;;;;;;5003640;28;20082;-53
2024/01/06 09:34:20;;;;;;;13.15;9.52;;;0.60;89.80;;;;;;5000346;28;20553;-56
2024/01/06 09:36:47;;;;;;;14.48;8.80;;;0.60;89.90;;;;;;5004482;28;20022;-55
2024/01/06 09:39:12;;;;;;;13.25;8.88;;;0.60;90.00;;;;;;5004743;28;20758;-56
2024/01/06 09:41:40;;;;;;;13.10;9.10;;;0.70;90.40;;;;;;5001361;28;20124;-56
2024/01/06 09:44:07;;;;;;;12.10;8.48;;;0.60;90.30;;;;;;5000171;28;20048;-55
2024/01/06 09:46:40;;;;;;;12.52;8.95;;;0.70;90.50;;;;;;5003933;28;20564;-56
2024/01/06 09:49:10;;;;;;;10.25;8.10;;;0.70;90.60;;;;;;4999255;28;20022;-55
2024/01/06 09:51:39;;;;;;;12.10;7.85;;;0.60;90.50;;;;;;4994327;28;20030;-52
2024/01/06 09:54:09;;;;;;;10.68;8.35;;;0.60;90.40;;;;;;4993423;28;20034;-53
2024/01/06 09:56:36;;;;;;;11.32;8.63;;;0.60;90.50;;;;;;4993866;28;20328;-53
2024/01/06 09:59:04;;;;;;;12.13;9.48;;;0.60;90.50;;;;;;4995553;28;20067;-53
2024/01/06 10:01:29;;;;;;;22.85;17.75;;;0.60;90.50;;;;;;5002862;28;20074;-55
2024/01/06 10:03:56;;;;;;;52.05;32.15;;;0.60;90.40;;;;;;4998769;28;20305;-57
2024/01/06 10:06:27;;;;;;;17.23;12.10;;;0.60;90.30;;;;;;5008322;28;20368;-55
2024/01/06 10:08:54;;;;;;;13.70;9.02;;;0.60;90.40;;;;;;5002919;28;20056;-55
2024/01/06 10:11:24;;;;;;;11.27;7.78;;;0.60;90.20;;;;;;5004329;28;20474;-56
2024/01/06 10:13:51;;;;;;;10.30;7.25;;;0.60;90.10;;;;;;5008180;28;20079;-54
2024/01/06 10:16:18;;;;;;;11.70;7.90;;;0.60;90.00;;;;;;5007006;28;20052;-54
2024/01/06 10:18:48;;;;;;;13.15;8.23;;;0.70;89.90;;;;;;5002902;28;20362;-54
2024/01/06 10:21:17;;;;;;;10.25;7.13;;;0.70;89.80;;;;;;5008787;28;20034;-52
2024/01/06 10:23:45;;;;;;;12.50;9.77;;;0.70;89.70;;;;;;5008003;28;20033;-54
2024/01/06 10:26:17;;;;;;;11.27;8.02;;;0.70;89.70;;;;;;5003556;28;20031;-53
2024/01/06 10:28:44;;;;;;;12.38;8.55;;;0.70;89.70;;;;;;5005742;28;20572;-55
2024/01/06 10:31:13;;;;;;;13.65;9.00;;;0.70;89.40;;;;;;5004522;28;20542;-55
2024/01/06 10:33:40;;;;;;;10.47;7.30;;;0.70;89.10;;;;;;4997358;28;20022;-53
2024/01/06 10:36:08;;;;;;;11.50;7.03;;;0.70;89.20;;;;;;5005365;28;20079;-55
2024/01/06 10:38:40;;;;;;;12.27;8.25;;;0.70;89.10;;;;;;5013609;28;20472;-54
2024/01/06 10:41:07;;;;;;;11.82;8.15;;;0.70;89.10;;;;;;5005560;28;20030;-55
2024/01/06 10:43:36;;;;;;;13.65;8.65;;;0.70;89.10;;;;;;5002673;28;20037;-52
2024/01/06 10:46:04;;;;;;;12.90;7.75;;;0.70;89.20;;;;;;5008167;28;20018;-56
2024/01/06 10:48:38;;;;;;;12.57;7.63;;;0.70;89.20;;;;;;4998217;28;20053;-54
2024/01/06 10:51:07;;;;;;;11.15;7.43;;;0.70;89.10;;;;;;5000637;28;20030;-56
2024/01/06 10:53:39;;;;;;;10.63;7.45;;;0.70;88.70;;;;;;5004140;28;20109;-55
2024/01/06 10:56:10;;;;;;;9.93;7.38;;;0.70;88.50;;;;;;5008265;28;20490;-55
2024/01/06 10:58:42;;;;;;;10.13;6.85;;;0.70;88.30;;;;;;5003750;28;20381;-53
2024/01/06 11:01:09;;;;;;;12.93;7.22;;;0.70;88.50;;;;;;5011150;28;20038;-51
2024/01/06 11:03:38;;;;;;;10.07;7.05;;;0.70;88.60;;;;;;5004534;28;20030;-54
2024/01/06 11:06:07;;;;;;;10.95;7.65;;;0.70;88.50;;;;;;5004790;28;20105;-53
2024/01/06 11:08:49;;;;;;;11.65;7.50;;;0.70;88.60;;;;;;4997469;28;20055;-54
2024/01/06 11:11:23;;;;;;;10.27;8.25;;;0.70;88.60;;;;;;4999239;28;20129;-49
2024/01/06 11:13:49;;;;;;;11.52;8.13;;;0.70;88.50;;;;;;5012368;28;20018;-54
2024/01/06 11:16:35;;;;;;;12.30;8.00;;;0.70;88.60;;;;;;5002853;28;20339;-52
2024/01/06 11:19:24;;;;;;;10.68;7.78;;;0.70;88.30;;;;;;5001093;28;20071;-53
2024/01/06 11:21:55;;;;;;;11.73;7.10;;;0.70;88.20;;;;;;5003125;28;20041;-54
2024/01/06 11:24:26;;;;;;;11.32;7.53;;;0.70;88.10;;;;;;5005110;28;20034;-56
2024/01/06 11:26:59;;;;;;;10.02;6.25;;;0.70;88.20;;;;;;5005079;28;20041;-53
2024/01/06 11:29:26;;;;;;;14.13;8.13;;;0.70;88.20;;;;;;5005044;28;20500;-52
2024/01/06 11:32:29;;;;;;;13.82;7.82;;;0.60;88.20;;;;;;5004735;28;20018;-55
2024/01/06 11:35:08;;;;;;;11.23;7.78;;;0.60;88.10;;;;;;4978631;28;20046;-56
2024/01/06 11:37:40;;;;;;;11.53;7.93;;;0.70;88.10;;;;;;5000129;28;20090;-55
2024/01/06 11:40:25;;;;;;;11.73;7.43;;;0.70;88.10;;;;;;4993342;28;20285;-52
2024/01/06 11:43:11;;;;;;;13.02;7.72;;;0.70;88.30;;;;;;4992234;28;20060;-55
2024/01/06 11:45:41;;;;;;;12.50;7.28;;;0.70;88.20;;;;;;5005131;28;20040;-54
2024/01/06 11:48:12;;;;;;;10.38;6.53;;;0.70;88.00;;;;;;4995168;28;20029;-56
2024/01/06 11:50:40;;;;;;;12.57;8.13;;;0.70;87.90;;;;;;5002103;28;20057;-53
2024/01/06 11:53:09;;;;;;;9.82;7.07;;;0.70;87.80;;;;;;5005700;28;20037;-57
2024/01/06 11:55:39;;;;;;;10.98;7.85;;;0.70;87.90;;;;;;5003649;28;20050;-55
2024/01/06 11:58:06;;;;;;;12.18;8.23;;;0.70;87.60;;;;;;5004935;28;20423;-55
2024/01/06 12:00:38;;;;;;;10.40;7.53;;;0.70;87.70;;;;;;5003496;28;20144;-55
2024/01/06 12:03:05;;;;;;;13.30;7.43;;;0.70;87.60;;;;;;4999026;28;20065;-54
2024/01/06 12:05:32;;;;;;;11.77;7.45;;;0.70;88.00;;;;;;5005684;28;20443;-53
2024/01/06 12:08:06;;;;;;;10.68;7.22;;;0.70;87.90;;;;;;4997315;28;20022;-54
2024/01/06 12:10:33;;;;;;;12.05;8.52;;;0.70;88.00;;;;;;5003808;28;20052;-51
2024/01/06 12:13:10;;;;;;;12.23;8.13;;;0.70;88.00;;;;;;5006032;28;20037;-50
2024/01/06 12:15:39;;;;;;;13.77;8.27;;;0.70;88.00;;;;;;4999614;28;20026;-53
2024/01/06 12:18:08;;;;;;;11.70;7.88;;;0.70;88.10;;;;;;5008537;28;20033;-53
2024/01/06 12:20:34;;;;;;;10.30;7.77;;;0.70;87.90;;;;;;4993676;28;20118;-54
2024/01/06 12:23:01;;;;;;;13.45;8.75;;;0.70;88.10;;;;;;5000126;28;20113;-56
2024/01/06 12:25:29;;;;;;;11.90;7.95;;;0.70;88.20;;;;;;4992377;28;20526;-55
2024/01/06 12:27:58;;;;;;;11.27;7.88;;;0.70;88.00;;;;;;5008297;28;20030;-51
2024/01/06 12:30:25;;;;;;;12.30;7.55;;;0.70;88.20;;;;;;5001007;28;20093;-52
2024/01/06 12:32:52;;;;;;;11.90;7.13;;;0.70;88.10;;;;;;5000311;28;20057;-56
2024/01/06 12:35:20;;;;;;;11.30;7.25;;;0.70;88.20;;;;;;4993927;28;20045;-53
2024/01/06 12:37:46;;;;;;;10.50;6.95;;;0.70;88.30;;;;;;5011918;28;20034;-54
2024/01/06 12:40:16;;;;;;;20.70;13.45;;;0.70;88.30;;;;;;5002441;28;20033;-54
2024/01/06 12:42:44;;;;;;;37.30;22.58;;;0.60;88.00;;;;;;4990666;28;20683;-56
2024/01/06 12:45:11;;;;;;;115.78;59.88;;;0.60;88.20;;;;;;5005242;28;20117;-52
2024/01/06 12:47:39;;;;;;;133.02;60.85;;;0.60;88.50;;;;;;5006863;28;20056;-51
2024/01/06 12:50:08;;;;;;;13.80;10.82;;;0.70;88.80;;;;;;4997048;28;20092;-55
2024/01/06 12:52:35;;;;;;;12.98;9.15;;;0.70;88.70;;;;;;4994228;28;20027;-53